Time;durP1;ratioP1;P1;durP2;ratioP2;P2;SDS_P1;SDS_P2;PMS_P1;PMS_P2;Temp;Humidity;BMP_temperature;BMP_pressure;BME280_temperature;BME280_humidity;BME280_pressure;Samples;Min_cycle;Max_cycle;Signal;HPM_P1;HPM_P2
2021/12/08 00:01:19;;;;;;;10.57;3.00;;;3.00;99.90;;;;;;4975469;28;20054;-75
2021/12/08 00:03:45;;;;;;;8.32;2.60;;;2.60;99.90;;;;;;4975319;28;20046;-75
2021/12/08 00:06:11;;;;;;;7.60;2.78;;;2.60;99.90;;;;;;4974757;28;20065;-77
2021/12/08 00:08:37;;;;;;;8.15;3.05;;;2.60;99.90;;;;;;4975158;28;20050;-77
2021/12/08 00:13:51;;;;;;;9.45;2.60;;;3.30;99.90;;;;;;4914943;29;20639;-78
2021/12/08 00:16:17;;;;;;;7.93;2.83;;;2.70;99.90;;;;;;4915369;29;20135;-75
2021/12/08 00:18:47;;;;;;;14.93;3.17;;;3.50;99.90;;;;;;4916713;29;20138;-77
2021/12/08 00:21:14;;;;;;;10.55;3.05;;;2.70;99.90;;;;;;4934332;29;20066;-79
2021/12/08 00:23:40;;;;;;;11.00;3.35;;;2.70;99.90;;;;;;4934246;29;20098;-77
2021/12/08 00:26:07;;;;;;;6.53;2.65;;;3.30;99.90;;;;;;4934188;29;20056;-76
2021/12/08 00:28:33;;;;;;;9.05;3.08;;;3.20;99.90;;;;;;4934283;29;20083;-77
2021/12/08 00:31:03;;;;;;;8.77;2.85;;;2.70;99.90;;;;;;4933707;29;20048;-79
2021/12/08 00:33:30;;;;;;;10.75;3.55;;;2.80;99.90;;;;;;4934195;29;20135;-77
2021/12/08 00:35:58;;;;;;;8.73;2.97;;;2.80;99.90;;;;;;4923740;29;20500;-80
2021/12/08 00:38:24;;;;;;;9.27;3.03;;;2.80;99.90;;;;;;4915103;29;20052;-78
2021/12/08 00:40:51;;;;;;;10.00;3.03;;;2.80;99.90;;;;;;4915157;29;20051;-80
2021/12/08 00:43:18;;;;;;;7.15;3.05;;;3.40;99.90;;;;;;4914948;29;20111;-78
2021/12/08 00:45:46;;;;;;;6.47;3.25;;;3.50;99.90;;;;;;4914393;29;20047;-79
2021/12/08 00:48:11;;;;;;;8.48;3.40;;;2.90;99.90;;;;;;4915741;29;20091;-80
2021/12/08 00:50:39;;;;;;;9.75;3.22;;;3.60;99.90;;;;;;4929597;29;20063;-77
2021/12/08 00:53:06;;;;;;;9.95;3.80;;;3.00;99.90;;;;;;4955225;29;20090;-78
2021/12/08 00:55:32;;;;;;;12.13;3.20;;;3.60;99.90;;;;;;4955076;29;20082;-77
2021/12/08 00:57:58;;;;;;;10.38;3.10;;;2.90;99.90;;;;;;4969715;28;20081;-77
2021/12/08 01:00:39;;;;;;;10.68;3.92;;;3.00;99.90;;;;;;4973929;28;20049;-78
2021/12/08 01:03:07;;;;;;;9.70;2.97;;;3.00;99.90;;;;;;4973826;28;20434;-77
2021/12/08 01:05:45;;;;;;;14.35;3.72;;;3.00;99.90;;;;;;4974444;28;20045;-77
2021/12/08 01:08:11;;;;;;;9.07;3.03;;;3.00;99.90;;;;;;4974177;28;20129;-78
2021/12/08 01:10:38;;;;;;;8.13;2.90;;;4.00;99.90;;;;;;4974142;28;20391;-77
2021/12/08 01:13:07;;;;;;;15.77;3.47;;;3.00;99.90;;;;;;4973730;28;20513;-79
2021/12/08 01:15:36;;;;;;;6.80;2.72;;;3.80;99.90;;;;;;4973802;28;20058;-76
2021/12/08 01:18:02;;;;;;;7.20;2.97;;;3.10;99.90;;;;;;4974043;28;20051;-77
2021/12/08 01:20:28;;;;;;;9.25;3.70;;;3.10;99.90;;;;;;4973773;28;20055;-79
2021/12/08 01:22:54;;;;;;;11.27;2.92;;;3.10;99.90;;;;;;4974056;28;20039;-76
2021/12/08 01:25:19;;;;;;;8.98;3.15;;;3.10;99.90;;;;;;4974080;28;20050;-77
2021/12/08 01:27:45;;;;;;;10.82;3.17;;;3.10;99.90;;;;;;4973327;28;20482;-77
2021/12/08 01:30:12;;;;;;;7.85;3.20;;;3.80;99.90;;;;;;4973798;28;20129;-76
2021/12/08 01:32:38;;;;;;;8.95;3.47;;;3.30;99.90;;;;;;4973572;28;20086;-77
2021/12/08 01:35:05;;;;;;;8.70;3.30;;;3.70;99.90;;;;;;4973929;28;20081;-78
2021/12/08 01:37:32;;;;;;;6.68;3.63;;;3.10;99.90;;;;;;4973976;28;20046;-78
2021/12/08 01:39:58;;;;;;;9.13;4.00;;;3.10;99.90;;;;;;4973572;28;20073;-79
2021/12/08 01:42:30;;;;;;;9.68;3.65;;;3.10;99.90;;;;;;4973483;28;20047;-81
2021/12/08 01:47:40;;;;;;;10.48;3.67;;;3.20;99.90;;;;;;4973366;28;20046;-74
2021/12/08 01:50:09;;;;;;;8.85;3.83;;;3.20;99.90;;;;;;4973179;28;20097;-79
2021/12/08 01:52:35;;;;;;;11.52;3.60;;;3.20;99.90;;;;;;4973477;28;20046;-79
2021/12/08 01:55:01;;;;;;;9.98;3.92;;;3.20;99.90;;;;;;4973552;28;20126;-81
2021/12/08 01:57:27;;;;;;;8.95;3.22;;;3.20;99.90;;;;;;4973154;28;20043;-80
2021/12/08 01:59:52;;;;;;;10.45;3.20;;;3.20;99.90;;;;;;4973203;28;20054;-81
2021/12/08 02:02:18;;;;;;;12.32;3.75;;;3.20;99.90;;;;;;4973245;28;20102;-81
2021/12/08 02:04:44;;;;;;;13.07;3.90;;;3.20;99.90;;;;;;4973428;28;20540;-78
2021/12/08 02:07:10;;;;;;;8.30;3.60;;;3.20;99.90;;;;;;4973349;28;20051;-78
2021/12/08 02:09:36;;;;;;;10.73;3.63;;;3.20;99.90;;;;;;4972323;28;20070;-77
2021/12/08 02:12:02;;;;;;;10.02;3.60;;;3.30;99.90;;;;;;4973091;28;20402;-78
2021/12/08 02:14:28;;;;;;;9.68;3.67;;;3.30;99.90;;;;;;4972717;28;20410;-78
2021/12/08 02:16:55;;;;;;;10.18;3.88;;;3.30;99.90;;;;;;4973314;28;20061;-77
2021/12/08 02:19:22;;;;;;;11.43;4.07;;;3.30;99.90;;;;;;4955651;28;20053;-77
2021/12/08 02:21:52;;;;;;;9.43;3.85;;;3.60;99.90;;;;;;4972852;28;20070;-78
2021/12/08 02:24:20;;;;;;;8.18;3.55;;;3.30;99.90;;;;;;4973047;28;20414;-77
2021/12/08 02:26:50;;;;;;;9.55;3.42;;;4.30;99.90;;;;;;4972952;28;20111;-77
2021/12/08 02:29:34;;;;;;;7.38;3.58;;;3.30;99.90;;;;;;4955524;28;20597;-77
2021/12/08 02:32:09;;;;;;;7.65;3.75;;;3.40;99.90;;;;;;4972813;28;20047;-78
2021/12/08 02:48:17;;;;;;;6.60;3.35;;;3.40;99.90;;;;;;4972731;28;20140;-77
2021/12/08 02:50:43;;;;;;;11.30;3.78;;;3.40;99.90;;;;;;4972464;28;20043;-78
2021/12/08 02:53:14;;;;;;;11.45;4.40;;;3.40;99.90;;;;;;4955185;28;20490;-77
2021/12/08 02:55:41;;;;;;;7.80;3.88;;;3.50;99.90;;;;;;4972742;28;20050;-79
2021/12/08 02:58:06;;;;;;;10.60;4.20;;;3.40;99.90;;;;;;4972738;28;20118;-77
2021/12/08 03:00:37;;;;;;;8.40;4.68;;;3.50;99.90;;;;;;4972634;28;20515;-79
2021/12/08 03:03:04;;;;;;;11.45;4.30;;;3.50;99.90;;;;;;4972571;28;20133;-77
2021/12/08 03:05:30;;;;;;;11.88;4.47;;;3.50;99.90;;;;;;4972389;28;20228;-77
2021/12/08 03:07:56;;;;;;;9.60;4.22;;;4.10;99.90;;;;;;4972646;28;20299;-78
2021/12/08 03:10:26;;;;;;;7.78;4.53;;;3.50;99.90;;;;;;4972496;28;20038;-76
2021/12/08 03:12:52;;;;;;;9.02;4.53;;;3.50;99.90;;;;;;4972713;28;20047;-76
2021/12/08 03:15:18;;;;;;;10.52;5.03;;;3.50;99.90;;;;;;4954650;28;20058;-77
2021/12/08 03:17:46;;;;;;;9.02;4.90;;;3.50;99.90;;;;;;4972431;28;20050;-78
2021/12/08 03:20:15;;;;;;;12.10;5.00;;;3.60;99.90;;;;;;4955900;28;20050;-78
2021/12/08 03:22:45;;;;;;;11.40;5.72;;;3.60;99.90;;;;;;4976259;28;20178;-77
2021/12/08 03:25:15;;;;;;;11.20;5.30;;;3.60;99.90;;;;;;4976175;28;20082;-79
2021/12/08 03:27:49;;;;;;;13.23;5.93;;;3.60;99.90;;;;;;4976080;28;20061;-76
2021/12/08 03:30:25;;;;;;;10.93;5.23;;;3.60;99.90;;;;;;4975847;28;20074;-76
2021/12/08 03:32:56;;;;;;;9.77;5.30;;;3.60;99.90;;;;;;4976149;28;20310;-76
2021/12/08 03:35:23;;;;;;;10.43;6.40;;;3.60;99.90;;;;;;4975702;28;20046;-77
2021/12/08 03:37:49;;;;;;;10.90;6.00;;;3.60;99.90;;;;;;4975887;28;20048;-77
2021/12/08 03:40:21;;;;;;;10.15;6.28;;;3.60;99.90;;;;;;4975709;28;20450;-76
2021/12/08 03:42:48;;;;;;;10.40;6.40;;;3.70;99.90;;;;;;4975651;28;20063;-77
2021/12/08 03:45:22;;;;;;;11.63;6.30;;;3.70;99.90;;;;;;4975901;28;20043;-78
2021/12/08 03:47:58;;;;;;;13.82;7.55;;;3.80;99.90;;;;;;4957802;28;20105;-77
2021/12/08 03:50:25;;;;;;;11.82;6.65;;;3.70;99.90;;;;;;4975664;28;20050;-77
2021/12/08 03:52:50;;;;;;;15.32;7.47;;;3.70;99.90;;;;;;4975446;28;20047;-75
2021/12/08 03:55:16;;;;;;;10.65;7.20;;;3.70;99.90;;;;;;4975453;28;20449;-77
2021/12/08 03:57:42;;;;;;;11.45;7.32;;;3.70;99.90;;;;;;4975687;28;20047;-77
2021/12/08 04:00:12;;;;;;;12.35;7.40;;;3.70;99.90;;;;;;4975644;28;20039;-77
2021/12/08 04:02:37;;;;;;;13.85;8.05;;;3.80;99.90;;;;;;4975226;28;20486;-79
2021/12/08 04:05:05;;;;;;;15.48;7.20;;;3.80;99.90;;;;;;4958153;28;20053;-77
2021/12/08 04:07:31;;;;;;;12.63;7.55;;;3.80;99.90;;;;;;4975064;28;20055;-78
2021/12/08 04:09:58;;;;;;;12.65;7.38;;;3.80;99.90;;;;;;4974839;28;20046;-77
2021/12/08 04:12:24;;;;;;;14.55;7.47;;;3.80;99.90;;;;;;4975149;28;20568;-79
2021/12/08 04:14:55;;;;;;;12.10;8.05;;;3.80;99.90;;;;;;4974847;28;20510;-77
2021/12/08 04:17:31;;;;;;;16.55;8.00;;;3.80;99.90;;;;;;4957670;28;20054;-77
2021/12/08 04:20:00;;;;;;;12.13;8.57;;;3.90;99.90;;;;;;4975083;28;20050;-77
2021/12/08 04:22:37;;;;;;;12.15;8.40;;;3.90;99.90;;;;;;4957735;28;20129;-78
2021/12/08 04:25:11;;;;;;;12.15;8.27;;;3.90;99.90;;;;;;4974638;28;20053;-78
2021/12/08 04:27:39;;;;;;;11.35;7.95;;;3.90;99.90;;;;;;4975106;28;20130;-78
2021/12/08 04:30:10;;;;;;;15.05;9.48;;;3.90;99.90;;;;;;4974737;28;20046;-77
2021/12/08 04:32:36;;;;;;;13.73;8.43;;;3.90;99.90;;;;;;4974009;28;20090;-78
2021/12/08 04:35:09;;;;;;;14.25;9.05;;;3.90;99.90;;;;;;4974923;28;20410;-77
2021/12/08 04:37:41;;;;;;;13.00;8.77;;;4.00;99.90;;;;;;4957685;28;20772;-80
2021/12/08 04:45:16;;;;;;;13.05;9.43;;;4.00;99.90;;;;;;4974565;28;20117;-77
2021/12/08 04:48:28;;;;;;;13.95;9.63;;;4.00;99.90;;;;;;4957223;28;20047;-78
2021/12/08 04:51:05;;;;;;;14.60;9.57;;;4.10;99.90;;;;;;4953899;28;20047;-80
2021/12/08 05:07:32;;;;;;;14.27;9.20;;;4.20;99.90;;;;;;4896050;29;20206;-78
2021/12/08 05:10:03;;;;;;;13.85;8.73;;;4.20;99.90;;;;;;4879679;29;20131;-78
2021/12/08 05:12:33;;;;;;;12.50;8.55;;;4.30;99.90;;;;;;4895357;29;20057;-79
2021/12/08 05:15:17;;;;;;;16.45;9.32;;;4.30;99.90;;;;;;4880126;29;20052;-78
2021/12/08 05:17:48;;;;;;;15.33;8.73;;;4.30;99.90;;;;;;4895404;29;20067;-79
2021/12/08 05:20:50;;;;;;;16.55;8.82;;;4.30;99.90;;;;;;4895592;29;20060;-77
2021/12/08 05:23:29;;;;;;;16.58;8.02;;;4.40;99.90;;;;;;4824756;29;20159;-77
2021/12/08 05:25:56;;;;;;;14.50;8.30;;;4.40;99.90;;;;;;4824523;29;20066;-79
2021/12/08 05:28:25;;;;;;;15.48;8.43;;;4.40;99.90;;;;;;4839798;29;20108;-79
2021/12/08 05:31:00;;;;;;;15.07;8.45;;;4.50;99.90;;;;;;4824551;29;20650;-80
2021/12/08 05:33:26;;;;;;;12.98;9.00;;;4.50;99.90;;;;;;4839424;29;20060;-77
2021/12/08 05:35:53;;;;;;;16.92;7.95;;;4.60;99.90;;;;;;4839804;29;20050;-78
2021/12/08 05:38:20;;;;;;;12.43;7.55;;;4.60;99.90;;;;;;4816659;29;20062;-78
2021/12/08 05:41:11;;;;;;;17.80;8.73;;;4.60;99.90;;;;;;4805569;29;20418;-79
2021/12/08 05:43:37;;;;;;;19.15;7.50;;;4.70;99.90;;;;;;4826607;29;20102;-78
2021/12/08 05:46:03;;;;;;;13.40;7.18;;;4.70;99.90;;;;;;4842918;29;20051;-81
2021/12/08 05:48:32;;;;;;;14.30;6.82;;;4.80;99.90;;;;;;4842479;29;20053;-81
2021/12/08 05:51:04;;;;;;;12.27;8.13;;;4.80;99.90;;;;;;4857583;29;20053;-80
2021/12/08 05:53:31;;;;;;;16.38;8.30;;;4.80;99.90;;;;;;4857760;29;20065;-82
2021/12/08 05:55:57;;;;;;;17.17;7.70;;;4.90;99.90;;;;;;4826356;29;20545;-78
2021/12/08 05:58:24;;;;;;;12.43;7.55;;;4.90;99.90;;;;;;4857779;29;20077;-77
2021/12/08 06:01:00;;;;;;;16.80;8.23;;;5.00;99.90;;;;;;4938668;28;20499;-80
2021/12/08 06:03:25;;;;;;;13.52;6.78;;;4.90;99.90;;;;;;4972732;28;20050;-80
2021/12/08 06:05:55;;;;;;;12.55;7.20;;;4.90;99.90;;;;;;4973448;28;20054;-80
2021/12/08 06:08:21;;;;;;;11.77;7.32;;;4.90;99.90;;;;;;4973277;28;20070;-76
2021/12/08 06:10:48;;;;;;;13.18;7.28;;;5.20;99.90;;;;;;4955735;28;20051;-80
2021/12/08 06:13:15;;;;;;;12.35;7.28;;;4.90;99.90;;;;;;4972740;28;20058;-79
2021/12/08 06:15:44;;;;;;;12.13;7.68;;;4.90;99.90;;;;;;4972948;28;20499;-78
2021/12/08 06:18:09;;;;;;;12.13;7.05;;;4.90;99.90;;;;;;4973603;28;20398;-80
2021/12/08 06:20:36;;;;;;;16.42;7.28;;;5.30;99.90;;;;;;4956169;28;20055;-79
2021/12/08 06:23:04;;;;;;;12.93;7.35;;;5.30;99.90;;;;;;4972453;28;20050;-80
2021/12/08 06:25:30;;;;;;;15.40;6.90;;;4.90;99.90;;;;;;4955452;28;20494;-80
2021/12/08 06:27:56;;;;;;;14.25;6.80;;;4.90;99.90;;;;;;4972430;28;20069;-81
2021/12/08 06:30:26;;;;;;;13.75;6.60;;;4.90;99.90;;;;;;4955741;28;20046;-79
2021/12/08 06:32:52;;;;;;;13.10;6.88;;;4.90;99.90;;;;;;4972847;28;20486;-80
2021/12/08 06:35:24;;;;;;;14.20;6.30;;;4.90;99.90;;;;;;4973041;28;20039;-80
2021/12/08 06:37:51;;;;;;;14.15;6.50;;;4.80;99.90;;;;;;4972075;28;20047;-77
2021/12/08 06:40:27;;;;;;;11.75;6.15;;;4.80;99.90;;;;;;4955631;28;20486;-81
2021/12/08 06:42:58;;;;;;;11.50;6.38;;;4.80;99.90;;;;;;4972764;28;20121;-80
2021/12/08 06:45:28;;;;;;;11.07;6.25;;;4.80;99.90;;;;;;4972930;28;20039;-77
2021/12/08 06:47:56;;;;;;;20.23;6.47;;;4.70;99.90;;;;;;4972819;28;20039;-80
2021/12/08 06:50:26;;;;;;;13.57;6.57;;;4.70;99.90;;;;;;4972600;28;20486;-79
2021/12/08 06:52:52;;;;;;;13.55;6.07;;;4.70;99.90;;;;;;4972830;28;20050;-79
2021/12/08 06:55:24;;;;;;;15.80;6.82;;;4.70;99.90;;;;;;4974241;28;20397;-78
2021/12/08 06:57:56;;;;;;;11.10;5.82;;;4.60;99.90;;;;;;4976311;28;20047;-81
2021/12/08 07:01:00;;;;;;;13.40;5.45;;;4.90;99.90;;;;;;4976707;28;20051;-79
2021/12/08 07:06:18;;;;;;;;;;;4.50;99.90;;;;;;4959747;28;20141;-80
2021/12/08 07:08:51;;;;;;;10.68;5.38;;;4.50;99.90;;;;;;4976334;28;20349;-79
2021/12/08 07:11:19;;;;;;;10.25;4.90;;;4.50;99.90;;;;;;4976214;28;20050;-79
2021/12/08 07:13:46;;;;;;;9.77;6.13;;;4.50;99.90;;;;;;4975540;28;20047;-80
2021/12/08 07:16:18;;;;;;;14.93;6.30;;;4.70;99.90;;;;;;4959081;28;20050;-80
2021/12/08 07:19:01;;;;;;;11.00;5.10;;;4.40;99.90;;;;;;4942743;28;20047;-81
2021/12/08 07:21:39;;;;;;;11.55;5.32;;;4.40;99.90;;;;;;4943364;28;20568;-78
2021/12/08 07:24:28;;;;;;;9.40;5.13;;;4.40;99.90;;;;;;4958672;28;20062;-81
2021/12/08 07:26:57;;;;;;;10.93;5.53;;;4.40;99.90;;;;;;4975723;28;20112;-82
2021/12/08 07:29:27;;;;;;;10.40;4.75;;;4.30;99.90;;;;;;4975970;28;20403;-81
2021/12/08 07:31:57;;;;;;;7.65;4.22;;;4.30;99.90;;;;;;4976118;28;20438;-82
2021/12/08 07:34:25;;;;;;;9.30;4.97;;;4.40;99.90;;;;;;4975817;28;20069;-81
2021/12/08 07:37:04;;;;;;;11.93;4.50;;;4.40;99.90;;;;;;4975673;28;20054;-78
2021/12/08 07:39:37;;;;;;;10.90;4.85;;;4.30;99.90;;;;;;4975935;28;20129;-77
2021/12/08 07:42:08;;;;;;;10.00;4.13;;;4.30;99.90;;;;;;4958399;28;20043;-80
2021/12/08 07:44:34;;;;;;;8.02;4.10;;;4.30;99.90;;;;;;4975266;28;20391;-77
2021/12/08 07:47:05;;;;;;;12.68;4.15;;;4.30;99.90;;;;;;4975259;28;20047;-79
2021/12/08 07:49:39;;;;;;;16.58;3.97;;;4.30;99.90;;;;;;4975542;28;20097;-75
2021/12/08 07:52:19;;;;;;;10.68;4.00;;;5.00;99.90;;;;;;4976071;28;20105;-76
2021/12/08 07:54:46;;;;;;;8.32;3.42;;;5.00;99.90;;;;;;4975810;28;20053;-77
2021/12/08 07:57:17;;;;;;;9.65;2.78;;;5.00;99.90;;;;;;4975779;28;20039;-80
2021/12/08 07:59:47;;;;;;;10.15;2.90;;;4.40;99.90;;;;;;4975380;28;20043;-80
2021/12/08 08:02:13;;;;;;;6.72;3.03;;;4.30;99.90;;;;;;4975350;28;20038;-77
2021/12/08 08:04:42;;;;;;;8.23;3.08;;;4.40;99.90;;;;;;4975441;28;20043;-80
2021/12/08 08:07:11;;;;;;;14.05;3.78;;;4.40;99.90;;;;;;4974234;28;20049;-78
2021/12/08 08:09:42;;;;;;;8.45;2.63;;;4.40;99.90;;;;;;4975294;28;20138;-77
2021/12/08 08:12:13;;;;;;;9.00;2.95;;;4.50;99.90;;;;;;4957997;28;20054;-79
2021/12/08 08:14:43;;;;;;;7.07;2.70;;;4.40;99.90;;;;;;4974318;28;20058;-78
2021/12/08 08:17:13;;;;;;;9.43;2.38;;;4.40;99.90;;;;;;4975243;28;20438;-78
2021/12/08 08:19:45;;;;;;;10.65;2.90;;;4.40;99.90;;;;;;4975151;28;20050;-79
2021/12/08 08:22:18;;;;;;;7.80;2.25;;;4.40;99.90;;;;;;4941231;28;20371;-78
2021/12/08 08:24:44;;;;;;;10.10;2.47;;;4.50;99.90;;;;;;4971686;28;20105;-78
2021/12/08 08:32:28;;;;;;;11.30;2.65;;;4.50;99.90;;;;;;4988050;23;20058;-82
2021/12/08 08:35:12;;;;;;;7.28;2.40;;;4.90;99.90;;;;;;4974944;28;20083;-79
2021/12/08 08:37:37;;;;;;;10.43;2.95;;;4.50;99.90;;;;;;4974778;28;20062;-79
2021/12/08 08:40:10;;;;;;;7.93;2.60;;;4.50;99.90;;;;;;4940937;28;20051;-81
2021/12/08 08:42:41;;;;;;;10.43;2.85;;;4.50;99.90;;;;;;4974525;28;20844;-80
2021/12/08 08:45:16;;;;;;;9.02;2.58;;;4.50;99.90;;;;;;4974506;28;20051;-79
2021/12/08 08:47:50;;;;;;;6.50;2.47;;;4.60;99.90;;;;;;4941289;28;20557;-79
2021/12/08 08:50:25;;;;;;;8.43;2.60;;;4.50;99.90;;;;;;4974564;28;20042;-81
2021/12/08 08:52:53;;;;;;;10.52;2.20;;;4.50;99.90;;;;;;4974386;28;20494;-78
2021/12/08 08:55:25;;;;;;;8.07;2.20;;;4.60;99.90;;;;;;4974559;28;20089;-77
2021/12/08 08:57:52;;;;;;;14.63;3.50;;;4.60;99.90;;;;;;4974171;28;20043;-79
2021/12/08 09:00:31;;;;;;;9.32;2.35;;;4.60;99.90;;;;;;4940887;28;20070;-79
2021/12/08 09:03:00;;;;;;;8.02;1.88;;;4.60;99.90;;;;;;4955366;28;20130;-78
2021/12/08 09:05:45;;;;;;;9.75;2.15;;;4.60;99.90;;;;;;4937412;28;20059;-75
2021/12/08 09:08:14;;;;;;;9.18;2.20;;;4.70;99.90;;;;;;4964313;28;20054;-80
2021/12/08 09:10:52;;;;;;;11.75;2.20;;;4.60;99.90;;;;;;4954855;28;20047;-79
2021/12/08 09:13:29;;;;;;;9.88;2.40;;;4.60;99.90;;;;;;4937447;28;20051;-79
2021/12/08 09:16:09;;;;;;;9.23;2.33;;;4.70;99.90;;;;;;4954910;28;20550;-78
2021/12/08 09:18:53;;;;;;;9.00;2.45;;;4.90;99.90;;;;;;4936215;29;20063;-78
2021/12/08 09:21:35;;;;;;;6.75;1.80;;;4.70;99.90;;;;;;4960892;28;20042;-77
2021/12/08 09:24:14;;;;;;;11.00;2.03;;;4.70;99.90;;;;;;4956462;28;20050;-79
2021/12/08 09:26:46;;;;;;;12.73;2.67;;;4.70;99.90;;;;;;4973433;28;20482;-80
2021/12/08 09:29:19;;;;;;;12.18;2.40;;;4.70;99.90;;;;;;4956557;28;20094;-78
2021/12/08 09:31:53;;;;;;;10.05;1.92;;;4.80;99.90;;;;;;4973334;28;20054;-81
2021/12/08 09:34:33;;;;;;;15.57;2.05;;;4.80;99.90;;;;;;4973718;28;20051;-77
2021/12/08 09:37:04;;;;;;;16.02;2.63;;;4.80;99.90;;;;;;4973338;28;20517;-78
2021/12/08 09:39:50;;;;;;;8.63;2.05;;;4.80;99.90;;;;;;4956136;28;20043;-80
2021/12/08 09:42:26;;;;;;;7.30;1.70;;;4.80;99.90;;;;;;4956130;28;20039;-78
2021/12/08 09:44:58;;;;;;;12.18;2.33;;;4.90;99.90;;;;;;4973580;28;20086;-78
2021/12/08 09:47:29;;;;;;;7.60;2.20;;;4.90;99.90;;;;;;4973451;28;20043;-78
2021/12/08 09:49:56;;;;;;;12.25;2.15;;;4.90;99.90;;;;;;4973127;28;20499;-80
2021/12/08 09:52:27;;;;;;;8.13;2.08;;;5.00;99.90;;;;;;4973177;28;20047;-79
2021/12/08 09:54:54;;;;;;;11.45;2.08;;;5.00;99.90;;;;;;4956266;28;20515;-80
2021/12/08 09:57:20;;;;;;;8.95;1.98;;;5.00;99.90;;;;;;4973548;28;20070;-80
2021/12/08 09:59:47;;;;;;;21.83;4.13;;;5.00;99.90;;;;;;4955850;28;20046;-78
2021/12/08 10:02:25;;;;;;;8.65;1.80;;;5.10;99.90;;;;;;4939715;28;20479;-78
2021/12/08 10:04:51;;;;;;;25.85;3.95;;;5.10;99.90;;;;;;4955482;28;20050;-79
2021/12/08 10:07:18;;;;;;;10.75;2.40;;;5.20;99.90;;;;;;4973208;28;20120;-79
2021/12/08 10:09:44;;;;;;;14.43;2.10;;;5.80;99.90;;;;;;4973314;28;20045;-80
2021/12/08 10:12:12;;;;;;;12.82;2.22;;;5.20;99.90;;;;;;4955655;28;20058;-78
2021/12/08 10:14:38;;;;;;;11.43;2.30;;;5.20;99.90;;;;;;4973179;28;20379;-79
2021/12/08 10:17:04;;;;;;;10.05;2.45;;;5.30;99.90;;;;;;4955970;28;20069;-78
2021/12/08 10:19:29;;;;;;;11.43;2.03;;;5.30;99.90;;;;;;4938850;28;20050;-81
2021/12/08 10:21:55;;;;;;;10.38;2.28;;;5.30;99.90;;;;;;4972666;28;20042;-79
2021/12/08 10:24:27;;;;;;;11.93;2.15;;;5.30;99.90;;;;;;4955637;28;20054;-78
2021/12/08 10:27:03;;;;;;;8.38;2.10;;;5.30;99.90;;;;;;4973017;28;20087;-78
2021/12/08 10:29:31;;;;;;;11.18;2.20;;;5.40;99.90;;;;;;4972204;28;20051;-80
2021/12/08 10:32:00;;;;;;;10.73;2.00;;;5.50;99.90;;;;;;4972844;28;20054;-80
2021/12/08 10:34:47;;;;;;;8.88;1.70;;;5.60;99.90;;;;;;4955291;28;20133;-80
2021/12/08 10:37:19;;;;;;;9.80;2.13;;;5.50;99.90;;;;;;4973740;28;20560;-78
2021/12/08 10:39:48;;;;;;;8.02;2.00;;;5.60;99.90;;;;;;4972935;28;20054;-78
2021/12/08 10:42:26;;;;;;;11.75;1.80;;;5.60;99.90;;;;;;4973937;28;20035;-79
2021/12/08 10:45:12;;;;;;;8.40;1.98;;;5.70;99.90;;;;;;4973106;28;20379;-77
2021/12/08 10:47:47;;;;;;;11.02;2.08;;;5.90;99.90;;;;;;4939818;28;20449;-80
2021/12/08 10:56:19;;;;;;;9.70;2.05;;;6.10;99.90;;;;;;4913469;28;20056;-77
2021/12/08 10:58:49;;;;;;;8.27;1.70;;;6.10;99.90;;;;;;4913146;29;20044;-79
2021/12/08 11:01:16;;;;;;;13.18;2.10;;;6.30;99.90;;;;;;4912849;29;20170;-76
2021/12/08 11:03:43;;;;;;;8.40;2.25;;;6.40;99.90;;;;;;4912760;29;20054;-77
2021/12/08 11:06:13;;;;;;;7.05;1.80;;;6.40;99.90;;;;;;4912598;29;20052;-77
2021/12/08 11:08:45;;;;;;;7.30;1.70;;;7.00;99.90;;;;;;4913027;29;20054;-78
2021/12/08 11:11:20;;;;;;;8.15;1.95;;;6.40;99.90;;;;;;4912967;29;20135;-79
2021/12/08 11:13:48;;;;;;;11.15;1.90;;;6.50;99.90;;;;;;4912849;29;20056;-77
2021/12/08 11:16:20;;;;;;;7.63;1.50;;;6.90;99.90;;;;;;4912913;29;20135;-77
2021/12/08 11:19:20;;;;;;;11.13;2.22;;;6.40;99.90;;;;;;4912780;29;20186;-76
2021/12/08 11:21:54;;;;;;;9.88;2.00;;;6.40;99.90;;;;;;4844306;29;20093;-77
2021/12/08 11:24:32;;;;;;;13.27;1.80;;;6.40;99.90;;;;;;4875315;29;20068;-76
2021/12/08 11:27:00;;;;;;;6.28;1.58;;;6.90;99.90;;;;;;4875257;29;20717;-78
2021/12/08 11:29:27;;;;;;;9.50;1.88;;;6.30;99.90;;;;;;4901357;29;20492;-78
2021/12/08 11:32:01;;;;;;;14.20;2.28;;;6.30;99.90;;;;;;4931385;29;20055;-76
2021/12/08 11:34:38;;;;;;;9.85;1.60;;;6.30;99.90;;;;;;4931785;29;20566;-75
2021/12/08 11:37:13;;;;;;;6.18;1.80;;;6.30;99.90;;;;;;4931415;29;20179;-77
2021/12/08 11:40:01;;;;;;;8.75;1.83;;;6.30;99.90;;;;;;4915543;29;20156;-76
2021/12/08 11:42:33;;;;;;;5.80;1.42;;;6.20;99.90;;;;;;4918752;29;20052;-79
2021/12/08 11:45:02;;;;;;;9.63;1.90;;;6.20;99.90;;;;;;4934952;29;20094;-77
2021/12/08 11:47:33;;;;;;;9.30;1.80;;;6.10;99.90;;;;;;4934887;29;20047;-78
2021/12/08 11:50:02;;;;;;;10.55;1.77;;;6.10;99.90;;;;;;4934833;29;20048;-76
2021/12/08 11:52:32;;;;;;;15.40;2.08;;;6.10;99.90;;;;;;4934492;29;20086;-77
2021/12/08 11:55:02;;;;;;;11.30;1.95;;;6.00;99.90;;;;;;4935029;29;20055;-76
2021/12/08 11:57:33;;;;;;;10.93;1.83;;;6.00;99.90;;;;;;4919008;29;20085;-76
2021/12/08 12:00:11;;;;;;;10.68;1.70;;;6.00;99.90;;;;;;4975515;28;20046;-76
2021/12/08 12:02:56;;;;;;;9.30;1.80;;;5.90;99.90;;;;;;4974899;28;20088;-76
2021/12/08 12:05:36;;;;;;;;;;;6.00;99.90;;;;;;4958017;28;20078;-77
2021/12/08 12:08:04;;;;;;;10.20;1.85;;;5.90;99.90;;;;;;4955705;29;19918;-77
2021/12/08 12:10:32;;;;;;;7.38;1.88;;;5.90;99.90;;;;;;4963899;28;20074;-77
2021/12/08 12:13:00;;;;;;;9.05;1.83;;;5.90;99.90;;;;;;4974945;28;20490;-78
2021/12/08 12:15:26;;;;;;;10.25;2.13;;;5.90;99.90;;;;;;4958107;28;20054;-76
2021/12/08 12:17:52;;;;;;;14.90;1.92;;;6.40;99.90;;;;;;4957719;28;20057;-78
2021/12/08 12:20:23;;;;;;;9.00;2.03;;;5.90;99.90;;;;;;4975064;28;20714;-77
2021/12/08 12:23:26;;;;;;;12.75;2.30;;;5.90;99.90;;;;;;4974886;28;20190;-78
2021/12/08 12:26:10;;;;;;;7.70;2.03;;;5.80;99.90;;;;;;4957456;28;20109;-76
2021/12/08 12:29:07;;;;;;;11.27;2.13;;;5.80;99.90;;;;;;4957407;28;20053;-79
2021/12/08 12:31:56;;;;;;;7.30;1.80;;;5.80;99.90;;;;;;4974787;28;20113;-77
2021/12/08 12:34:23;;;;;;;11.13;2.20;;;5.80;99.90;;;;;;4957393;28;20074;-78
2021/12/08 12:36:49;;;;;;;7.88;1.90;;;5.80;99.90;;;;;;4974798;28;20050;-77
2021/12/08 12:39:17;;;;;;;7.78;2.05;;;5.80;99.90;;;;;;4957714;28;20046;-78
2021/12/08 12:41:55;;;;;;;7.63;2.05;;;5.80;99.90;;;;;;4975068;28;20077;-77
2021/12/08 12:44:27;;;;;;;14.73;2.28;;;5.80;99.90;;;;;;4974802;28;20039;-77
2021/12/08 12:49:33;;;;;;;12.52;2.40;;;5.80;99.90;;;;;;4957150;28;20061;-77
2021/12/08 12:52:01;;;;;;;9.93;2.15;;;5.70;99.90;;;;;;4974533;28;20403;-77
2021/12/08 12:54:27;;;;;;;7.40;2.30;;;5.70;99.90;;;;;;4956440;28;20078;-79
2021/12/08 12:56:55;;;;;;;11.55;2.38;;;5.70;99.90;;;;;;4956959;28;20090;-79
2021/12/08 12:59:24;;;;;;;6.10;2.30;;;5.70;99.90;;;;;;4974134;28;20494;-77
2021/12/08 13:02:07;;;;;;;11.73;2.72;;;5.70;99.90;;;;;;4956895;28;20451;-77
2021/12/08 13:04:35;;;;;;;10.43;4.30;;;5.70;99.90;;;;;;4974187;28;20573;-78
2021/12/08 13:07:07;;;;;;;10.15;2.83;;;5.70;99.90;;;;;;4957081;28;20043;-78
2021/12/08 13:09:36;;;;;;;10.95;3.58;;;5.60;99.90;;;;;;4973525;28;20505;-79
2021/12/08 13:12:14;;;;;;;10.23;3.10;;;5.60;99.90;;;;;;4973999;28;20047;-78
2021/12/08 13:14:41;;;;;;;16.48;3.47;;;5.70;99.90;;;;;;4974198;28;20050;-78
2021/12/08 13:17:25;;;;;;;9.73;2.72;;;5.70;99.90;;;;;;4974082;28;20049;-79
2021/12/08 13:19:57;;;;;;;10.43;3.22;;;5.60;99.90;;;;;;4955917;28;20042;-78
2021/12/08 13:22:47;;;;;;;7.35;2.17;;;5.60;99.90;;;;;;4973813;28;20039;-77
2021/12/08 13:28:18;;;;;;;15.45;4.30;;;5.60;99.90;;;;;;4973788;28;20351;-78
2021/12/08 13:30:52;;;;;;;12.30;3.10;;;5.90;99.90;;;;;;4973815;28;20055;-78
2021/12/08 13:33:26;;;;;;;8.52;2.70;;;5.60;99.90;;;;;;4973495;28;20063;-77
2021/12/08 13:35:53;;;;;;;13.52;2.95;;;5.60;99.90;;;;;;4973228;28;20054;-76
2021/12/08 13:38:19;;;;;;;7.18;2.60;;;5.70;99.90;;;;;;4973434;28;20482;-76
2021/12/08 13:40:54;;;;;;;13.65;4.43;;;5.70;99.90;;;;;;4973432;28;20053;-77
2021/12/08 13:43:37;;;;;;;;;;;5.90;99.90;;;;;;4974074;28;20047;-76
2021/12/08 13:46:04;;;;;;;11.50;3.22;;;6.10;99.90;;;;;;4973601;28;19926;-78
2021/12/08 13:48:30;;;;;;;7.45;2.67;;;6.20;99.90;;;;;;4955949;28;20047;-75
2021/12/08 13:51:17;;;;;;;10.85;2.53;;;6.20;99.90;;;;;;4973824;28;20097;-77
2021/12/08 13:53:43;;;;;;;13.77;2.90;;;6.30;99.90;;;;;;4973230;28;20104;-76
2021/12/08 13:56:09;;;;;;;12.93;3.15;;;6.40;99.90;;;;;;4955335;28;20477;-77
2021/12/08 13:58:38;;;;;;;14.38;3.35;;;6.50;99.90;;;;;;4955256;28;20098;-77
2021/12/08 14:01:06;;;;;;;16.20;4.78;;;6.60;99.90;;;;;;4973612;28;20043;-76
2021/12/08 14:03:44;;;;;;;8.85;2.55;;;6.70;99.90;;;;;;4973571;28;20066;-77
2021/12/08 14:06:10;;;;;;;11.13;3.05;;;6.80;99.90;;;;;;4972406;28;20045;-77
2021/12/08 14:08:42;;;;;;;12.40;2.47;;;6.80;99.90;;;;;;4973138;28;20046;-78